CheckWX is a tool to help pilots better visualize weather data.  It is not intended as a substitute for an official pre-flight weather briefing.

23:17:30 UTC

KJBR METAR
Jonesboro Municipal Airport
Jonesboro, Arkansas, USA
Current

25 mins ago

KJBR 222253Z AUTO 04011KT 10SM OVC014 07/04 A3002 RMK AO2 RAB43E52 SLP165 P0000 T00720044
Observed
Nov-22 @ 22:53 UTC
Wind
  • 040° at 11 KTS
Visibility
10 SM
Flight Rules
MVFR
Cloud Levels
  • Overcast at 1,400' AGL
Temperature
C / 45°F
Dewpoint
C / 39°F
Humidity
81%
Altimeter
30.02" Hg
Pressure
1016.62 hPa
Current Rain
0.01"
Previous

1 hour ago

KJBR 222153Z AUTO 04011KT 10SM OVC013 07/04 A3003 RMK AO2 RAE53 SLP169 P0000 T00720044
Observed
Nov-22 @ 21:53 UTC
Wind
  • 040° at 11 KTS
Visibility
10 SM
Flight Rules
MVFR
Cloud Levels
  • Overcast at 1,300' AGL
Temperature
C / 45°F
Dewpoint
C / 39°F
Humidity
81%
Altimeter
30.03" Hg
Pressure
1016.92 hPa
Current Rain
0.01"
Previous

2 hours ago

KJBR 222053Z AUTO 02009G17KT 10SM -RA OVC013 07/04 A3005 RMK AO2 SLP176 P0000 60000 T00720044 55016
Observed
Nov-22 @ 20:53 UTC
Wind
  • 020° at 9 KTS
  • Gusting to 17 KTS
Visibility
10 SM
Flight Rules
MVFR
Conditions
Light Rain
Cloud Levels
  • Overcast at 1,300' AGL
Temperature
C / 45°F
Dewpoint
C / 39°F
Humidity
81%
Altimeter
30.05" Hg
Pressure
1017.62 hPa
Current Rain
0.01"